Time;durP1;ratioP1;P1;durP2;ratioP2;P2;SDS_P1;SDS_P2;PMS_P1;PMS_P2;Temp;Humidity;BMP_temperature;BMP_pressure;BME280_temperature;BME280_humidity;BME280_pressure;Samples;Min_cycle;Max_cycle;Signal;HPM_P1;HPM_P2
2024/04/11 00:01:12;;;;;;;10.90;4.50;;;;;;;;;;103957;1286;546182;-70
2024/04/11 00:04:47;;;;;;;12.30;5.30;;;;;;;;;;103759;1289;545708;-70
2024/04/11 00:08:25;;;;;;;11.00;5.10;;;;;;;;;;103560;1292;545690;-71
2024/04/11 00:12:03;;;;;;;11.90;5.20;;;;;;;;;;103651;1292;545610;-70
2024/04/11 00:15:40;;;;;;;9.50;4.80;;;;;;;;;;104415;1289;544809;-69
2024/04/11 00:19:18;;;;;;;10.80;4.40;;;;;;;;;;104089;1289;544988;-72
2024/04/11 00:22:51;;;;;;;8.60;4.40;;;;;;;;;;103636;1292;544718;-71
2024/04/11 00:26:33;;;;;;;11.20;4.00;;;;;;;;;;103809;1289;544953;-68
2024/04/11 00:30:09;;;;;;;8.70;3.90;;;;;;;;;;103647;1298;544786;-70
2024/04/11 00:34:12;;;;;;;10.60;4.80;;;;;;;;;;103966;1289;545156;-69
2024/04/11 00:37:25;;;;;;;8.40;4.50;;;;;;;;;;103753;1296;544844;-69
2024/04/11 00:41:02;;;;;;;8.70;4.00;;;;;;;;;;103739;1290;545428;-70
2024/04/11 00:44:40;;;;;;;8.70;4.30;;;;;;;;;;103669;1288;544908;-69
2024/04/11 00:48:18;;;;;;;9.40;4.80;;;;;;;;;;103799;1289;545614;-69
2024/04/11 00:51:55;;;;;;;12.30;6.10;;;;;;;;;;103558;1303;545036;-70
2024/04/11 00:55:33;;;;;;;13.40;5.60;;;;;;;;;;103680;1289;545419;-69
2024/04/11 00:59:10;;;;;;;12.30;5.80;;;;;;;;;;103607;1292;544979;-70
2024/04/11 01:02:47;;;;;;;10.10;4.90;;;;;;;;;;103812;1289;544934;-69
2024/04/11 01:06:20;;;;;;;11.50;5.70;;;;;;;;;;103867;1290;545881;-70
2024/04/11 01:10:07;;;;;;;12.90;5.40;;;;;;;;;;103775;1291;546331;-69
2024/04/11 01:13:39;;;;;;;13.20;6.50;;;;;;;;;;103696;1295;545214;-72
2024/04/11 01:17:17;;;;;;;11.10;6.40;;;;;;;;;;103690;1289;544782;-70
2024/04/11 01:20:54;;;;;;;11.80;6.00;;;;;;;;;;103633;1289;545447;-69
2024/04/11 01:24:34;;;;;;;12.20;5.80;;;;;;;;;;103733;1289;544849;-69
2024/04/11 01:28:09;;;;;;;13.80;5.90;;;;;;;;;;103607;1291;545286;-70
2024/04/11 01:31:53;;;;;;;12.80;6.30;;;;;;;;;;103740;1292;545527;-70
2024/04/11 01:35:24;;;;;;;13.50;6.70;;;;;;;;;;103639;1292;545119;-69
2024/04/11 01:39:09;;;;;;;13.30;7.30;;;;;;;;;;103449;1295;545608;-70
2024/04/11 01:42:39;;;;;;;13.30;6.20;;;;;;;;;;103667;1289;545601;-69
2024/04/11 01:46:18;;;;;;;14.80;6.80;;;;;;;;;;103649;1291;545680;-71
2024/04/11 01:49:54;;;;;;;16.80;8.10;;;;;;;;;;103683;1289;544980;-70
2024/04/11 01:53:36;;;;;;;24.20;17.00;;;;;;;;;;103957;1288;545784;-69
2024/04/11 01:57:12;;;;;;;28.00;18.10;;;;;;;;;;103767;1292;544859;-69
2024/04/11 02:00:47;;;;;;;33.70;17.80;;;;;;;;;;103694;1294;544775;-70
2024/04/11 02:04:30;;;;;;;26.40;16.60;;;;;;;;;;103601;1290;545001;-70
2024/04/11 02:08:02;;;;;;;24.70;16.10;;;;;;;;;;103698;1292;545387;-70
2024/04/11 02:11:42;;;;;;;26.60;17.00;;;;;;;;;;103700;1289;545499;-70
2024/04/11 02:15:14;;;;;;;28.00;17.60;;;;;;;;;;103800;1292;544867;-70
2024/04/11 02:18:55;;;;;;;22.30;14.60;;;;;;;;;;103792;1289;545376;-69
2024/04/11 02:22:32;;;;;;;21.40;12.60;;;;;;;;;;104162;1285;545455;-70
2024/04/11 02:26:09;;;;;;;18.40;11.30;;;;;;;;;;103659;1289;546108;-69
2024/04/11 02:29:47;;;;;;;19.20;11.10;;;;;;;;;;103819;1289;544974;-69
2024/04/11 02:33:29;;;;;;;19.20;11.20;;;;;;;;;;103812;1289;544718;-70
2024/04/11 02:37:02;;;;;;;20.30;12.40;;;;;;;;;;103587;1305;547597;-70
2024/04/11 02:40:39;;;;;;;24.80;12.40;;;;;;;;;;103959;1287;545052;-69
2024/04/11 02:44:19;;;;;;;16.10;9.30;;;;;;;;;;104210;1283;544938;-70
2024/04/11 02:47:55;;;;;;;16.10;8.90;;;;;;;;;;103705;1289;545094;-70
2024/04/11 02:51:34;;;;;;;13.30;7.70;;;;;;;;;;103629;1291;545130;-69
2024/04/11 02:55:11;;;;;;;14.30;8.70;;;;;;;;;;103738;1289;545676;-69
2024/04/11 02:58:48;;;;;;;18.00;9.50;;;;;;;;;;103956;1288;545506;-70
2024/04/11 03:02:28;;;;;;;16.00;8.90;;;;;;;;;;103668;1292;544999;-68
2024/04/11 03:06:21;;;;;;;17.30;8.80;;;;;;;;;;104015;1289;545512;-71
2024/04/11 03:09:39;;;;;;;16.40;8.40;;;;;;;;;;104020;1286;544921;-69
2024/04/11 03:13:19;;;;;;;15.90;7.70;;;;;;;;;;103816;1288;545560;-71
2024/04/11 03:16:54;;;;;;;18.60;8.70;;;;;;;;;;104405;1285;544954;-69
2024/04/11 03:20:32;;;;;;;18.70;9.50;;;;;;;;;;103692;1301;544913;-70
2024/04/11 03:24:06;;;;;;;16.60;9.60;;;;;;;;;;103562;1292;546002;-71
2024/04/11 03:27:47;;;;;;;17.10;8.50;;;;;;;;;;104113;1287;544586;-68
2024/04/11 03:31:24;;;;;;;14.80;7.40;;;;;;;;;;103518;1291;544987;-70
2024/04/11 03:35:04;;;;;;;14.80;8.30;;;;;;;;;;103588;1291;545482;-71
2024/04/11 03:38:39;;;;;;;15.00;7.10;;;;;;;;;;103525;1289;545538;-70
2024/04/11 03:42:17;;;;;;;13.30;6.90;;;;;;;;;;103722;1292;544996;-70
2024/04/11 03:46:02;;;;;;;12.50;6.20;;;;;;;;;;103766;1290;544817;-68
2024/04/11 03:49:32;;;;;;;11.00;6.30;;;;;;;;;;104174;1283;545044;-69
2024/04/11 03:53:08;;;;;;;13.40;5.90;;;;;;;;;;103683;1292;545060;-71
2024/04/11 03:56:46;;;;;;;12.30;6.80;;;;;;;;;;103612;1291;545165;-70
2024/04/11 04:00:24;;;;;;;18.00;7.60;;;;;;;;;;103630;1292;545624;-69
2024/04/11 04:04:03;;;;;;;22.60;8.80;;;;;;;;;;103606;1296;545973;-70
2024/04/11 04:07:38;;;;;;;19.50;10.00;;;;;;;;;;103603;1291;544929;-69
2024/04/11 04:11:17;;;;;;;23.90;10.40;;;;;;;;;;103612;1289;544780;-69
2024/04/11 04:14:54;;;;;;;21.80;9.90;;;;;;;;;;103623;1292;545099;-71
2024/04/11 04:18:31;;;;;;;20.20;9.60;;;;;;;;;;103603;1292;545854;-69
2024/04/11 04:22:13;;;;;;;21.50;10.60;;;;;;;;;;103733;1295;544761;-71
2024/04/11 04:25:53;;;;;;;21.40;9.80;;;;;;;;;;103665;1289;546134;-71
2024/04/11 04:29:24;;;;;;;19.40;9.60;;;;;;;;;;104076;1289;544832;-69
2024/04/11 04:32:58;;;;;;;18.00;9.40;;;;;;;;;;103868;1290;544934;-70
2024/04/11 04:36:41;;;;;;;19.50;9.10;;;;;;;;;;103597;1291;545466;-70
2024/04/11 04:40:16;;;;;;;17.20;9.10;;;;;;;;;;103854;1289;545263;-70
2024/04/11 04:43:57;;;;;;;17.20;9.20;;;;;;;;;;103751;1292;545538;-69
2024/04/11 04:47:34;;;;;;;20.50;9.40;;;;;;;;;;103619;1291;544981;-70
2024/04/11 04:51:11;;;;;;;16.20;8.70;;;;;;;;;;103691;1291;544952;-70
2024/04/11 04:54:46;;;;;;;20.40;10.00;;;;;;;;;;103813;1290;545067;-69
2024/04/11 04:58:24;;;;;;;20.60;10.30;;;;;;;;;;103797;1289;545448;-71
2024/04/11 05:02:03;;;;;;;19.00;9.40;;;;;;;;;;103858;1292;545141;-70
2024/04/11 05:05:39;;;;;;;19.10;8.80;;;;;;;;;;104364;1286;544862;-69
2024/04/11 05:09:15;;;;;;;18.90;8.90;;;;;;;;;;103743;1290;545038;-71
2024/04/11 05:12:59;;;;;;;17.60;7.80;;;;;;;;;;103755;1292;545888;-71
2024/04/11 05:16:30;;;;;;;23.30;8.40;;;;;;;;;;103934;1289;545058;-71
2024/04/11 05:20:17;;;;;;;21.60;9.70;;;;;;;;;;103833;1288;544871;-71
2024/04/11 05:23:53;;;;;;;20.70;9.60;;;;;;;;;;104101;1287;549704;-69
2024/04/11 05:27:23;;;;;;;18.80;8.10;;;;;;;;;;104299;1286;545030;-70
2024/04/11 05:31:06;;;;;;;22.00;7.90;;;;;;;;;;103790;1289;544707;-70
2024/04/11 05:34:39;;;;;;;29.50;9.00;;;;;;;;;;103775;1290;544774;-71
2024/04/11 05:38:17;;;;;;;34.50;10.60;;;;;;;;;;103741;1289;545504;-70
2024/04/11 05:41:55;;;;;;;28.50;10.30;;;;;;;;;;103694;1288;544882;-70
2024/04/11 05:45:33;;;;;;;31.60;10.10;;;;;;;;;;103559;1290;545160;-70
2024/04/11 05:49:09;;;;;;;28.00;8.60;;;;;;;;;;103781;1290;544917;-70
2024/04/11 05:52:48;;;;;;;25.90;8.60;;;;;;;;;;103681;1289;545131;-71
2024/04/11 05:56:23;;;;;;;30.30;8.90;;;;;;;;;;103620;1292;545123;-71
2024/04/11 06:00:00;;;;;;;27.90;9.20;;;;;;;;;;103960;1286;545423;-71
2024/04/11 06:03:40;;;;;;;21.90;9.50;;;;;;;;;;103721;1291;545399;-70
2024/04/11 06:07:15;;;;;;;26.00;9.50;;;;;;;;;;103656;1293;545253;-71
2024/04/11 06:10:53;;;;;;;22.50;9.00;;;;;;;;;;104514;1283;544939;-73
2024/04/11 06:14:28;;;;;;;24.20;8.30;;;;;;;;;;103533;1294;546510;-70
2024/04/11 06:18:09;;;;;;;20.10;8.70;;;;;;;;;;103563;1289;544972;-71
2024/04/11 06:21:53;;;;;;;28.60;9.30;;;;;;;;;;103575;1291;545022;-72
2024/04/11 06:25:20;;;;;;;26.40;8.90;;;;;;;;;;103760;1301;545159;-70
2024/04/11 06:29:01;;;;;;;27.20;8.00;;;;;;;;;;103674;1295;544986;-69
2024/04/11 06:32:38;;;;;;;18.20;6.10;;;;;;;;;;104270;1282;544866;-70
2024/04/11 06:36:17;;;;;;;11.50;4.20;;;;;;;;;;104333;1295;545058;-68
2024/04/11 06:39:55;;;;;;;12.50;5.30;;;;;;;;;;103920;1291;546478;-72
2024/04/11 06:43:31;;;;;;;19.10;6.70;;;;;;;;;;103475;1289;545069;-69
2024/04/11 06:47:09;;;;;;;21.40;5.80;;;;;;;;;;103414;1291;547151;-72
2024/04/11 06:50:46;;;;;;;21.10;5.90;;;;;;;;;;104255;1295;545559;-71
2024/04/11 06:54:26;;;;;;;19.00;5.70;;;;;;;;;;103773;1289;545039;-69
2024/04/11 06:58:01;;;;;;;18.20;4.20;;;;;;;;;;103905;1289;545699;-71
2024/04/11 07:01:39;;;;;;;22.00;5.20;;;;;;;;;;103900;1288;545034;-70
2024/04/11 07:05:16;;;;;;;13.00;4.10;;;;;;;;;;103581;1291;546467;-69
2024/04/11 07:09:03;;;;;;;13.90;4.10;;;;;;;;;;103928;1286;545423;-71
2024/04/11 07:12:29;;;;;;;13.10;3.30;;;;;;;;;;104078;1289;545101;-69
2024/04/11 07:16:07;;;;;;;9.70;2.20;;;;;;;;;;104193;1286;544837;-71
2024/04/11 07:19:45;;;;;;;10.70;2.50;;;;;;;;;;103807;1289;544814;-70
2024/04/11 07:23:22;;;;;;;10.00;3.30;;;;;;;;;;103791;1289;544877;-71
2024/04/11 07:27:00;;;;;;;9.20;3.10;;;;;;;;;;103673;1291;546090;-71
2024/04/11 07:30:37;;;;;;;12.50;3.30;;;;;;;;;;103685;1290;545172;-70
2024/04/11 07:34:15;;;;;;;8.50;3.20;;;;;;;;;;103738;1296;545571;-70
2024/04/11 07:37:59;;;;;;;8.80;3.30;;;;;;;;;;104576;1282;545669;-70
2024/04/11 07:41:45;;;;;;;8.10;2.00;;;;;;;;;;103629;1295;545942;-74
2024/04/11 07:45:07;;;;;;;7.50;2.10;;;;;;;;;;103630;1292;544791;-71
2024/04/11 07:48:47;;;;;;;7.40;1.80;;;;;;;;;;103710;1291;545215;-70
2024/04/11 07:52:22;;;;;;;8.80;1.80;;;;;;;;;;103775;1294;544730;-71
2024/04/11 07:56:00;;;;;;;5.40;1.70;;;;;;;;;;103948;1289;544756;-72
2024/04/11 07:59:37;;;;;;;5.30;1.60;;;;;;;;;;103862;1295;544918;-70
2024/04/11 08:03:20;;;;;;;6.40;1.80;;;;;;;;;;103614;1291;545555;-74
2024/04/11 08:06:54;;;;;;;7.30;1.80;;;;;;;;;;103883;1289;545015;-70
2024/04/11 08:10:32;;;;;;;7.10;1.70;;;;;;;;;;103711;1291;545953;-72
2024/04/11 08:14:07;;;;;;;6.30;1.50;;;;;;;;;;104036;1288;547158;-68
2024/04/11 08:17:45;;;;;;;5.00;1.10;;;;;;;;;;103775;1286;544847;-68
2024/04/11 08:21:18;;;;;;;5.90;1.50;;;;;;;;;;103400;1301;544847;-68
2024/04/11 08:24:56;;;;;;;5.10;1.60;;;;;;;;;;103380;1291;547229;-68
2024/04/11 08:28:41;;;;;;;5.20;1.50;;;;;;;;;;104059;1290;545451;-69
2024/04/11 08:32:15;;;;;;;11.30;1.70;;;;;;;;;;103744;1289;545029;-70
2024/04/11 08:35:53;;;;;;;5.50;1.10;;;;;;;;;;103508;1291;545268;-70
2024/04/11 08:39:30;;;;;;;6.40;1.40;;;;;;;;;;103728;1294;545473;-71
2024/04/11 08:43:09;;;;;;;4.60;1.50;;;;;;;;;;103661;1302;545951;-70
2024/04/11 08:46:45;;;;;;;7.80;1.50;;;;;;;;;;103779;1291;545968;-71
2024/04/11 08:50:23;;;;;;;4.90;1.50;;;;;;;;;;103710;1289;545058;-71
2024/04/11 08:54:02;;;;;;;8.10;2.30;;;;;;;;;;103676;1291;545770;-71
2024/04/11 08:57:37;;;;;;;15.10;3.00;;;;;;;;;;104238;1289;545239;-70
2024/04/11 09:01:15;;;;;;;8.20;2.10;;;;;;;;;;104008;1289;545978;-69
2024/04/11 09:04:53;;;;;;;4.70;1.30;;;;;;;;;;103598;1295;545174;-70
2024/04/11 09:08:29;;;;;;;6.30;1.40;;;;;;;;;;103731;1289;545608;-71
2024/04/11 09:12:07;;;;;;;3.60;1.40;;;;;;;;;;103657;1295;545132;-71
2024/04/11 09:15:45;;;;;;;5.80;1.60;;;;;;;;;;103611;1290;545136;-71
2024/04/11 09:19:22;;;;;;;7.40;1.70;;;;;;;;;;103627;1291;545466;-69
2024/04/11 09:22:59;;;;;;;5.90;1.80;;;;;;;;;;103969;1288;544996;-71
2024/04/11 09:26:33;;;;;;;4.30;1.50;;;;;;;;;;103790;1295;545447;-70
2024/04/11 09:30:10;;;;;;;4.90;1.60;;;;;;;;;;103844;1289;545865;-71
2024/04/11 09:33:55;;;;;;;8.50;1.80;;;;;;;;;;103825;1291;545308;-71
2024/04/11 09:37:26;;;;;;;7.10;1.80;;;;;;;;;;104267;1286;544875;-69
2024/04/11 09:41:11;;;;;;;7.00;1.90;;;;;;;;;;103319;1292;545811;-69
2024/04/11 09:44:50;;;;;;;6.00;1.90;;;;;;;;;;103767;1295;544929;-70
2024/04/11 09:48:25;;;;;;;5.80;1.70;;;;;;;;;;103733;1288;545710;-73
2024/04/11 09:51:59;;;;;;;4.80;1.70;;;;;;;;;;103840;1289;545766;-69
2024/04/11 09:55:42;;;;;;;6.50;1.60;;;;;;;;;;103676;1292;548062;-70
2024/04/11 09:59:15;;;;;;;5.40;1.60;;;;;;;;;;103669;1291;545189;-71
2024/04/11 10:02:54;;;;;;;5.60;1.60;;;;;;;;;;103991;1289;545122;-71
2024/04/11 10:06:30;;;;;;;6.90;1.90;;;;;;;;;;103745;1291;544916;-71
2024/04/11 10:10:17;;;;;;;7.30;1.60;;;;;;;;;;103746;1291;544940;-71
2024/04/11 10:13:45;;;;;;;7.40;1.50;;;;;;;;;;103722;1291;544961;-72
2024/04/11 10:17:24;;;;;;;5.60;1.50;;;;;;;;;;103845;1289;544925;-70
2024/04/11 10:21:02;;;;;;;10.50;1.90;;;;;;;;;;103673;1292;545153;-71
2024/04/11 10:24:37;;;;;;;7.70;1.40;;;;;;;;;;103751;1291;545045;-72
2024/04/11 10:28:14;;;;;;;7.70;1.50;;;;;;;;;;103736;1290;544872;-70
2024/04/11 10:31:56;;;;;;;7.60;1.90;;;;;;;;;;103628;1293;544769;-72
2024/04/11 10:35:31;;;;;;;5.60;1.90;;;;;;;;;;103556;1292;545479;-71
2024/04/11 10:39:08;;;;;;;5.60;1.60;;;;;;;;;;104396;1288;546343;-70
2024/04/11 10:46:21;;;;;;;7.50;2.00;;;;;;;;;;103707;1291;545045;-74
2024/04/11 10:49:59;;;;;;;7.50;1.70;;;;;;;;;;103625;1292;544907;-72
2024/04/11 10:54:08;;;;;;;7.60;1.80;;;;;;;;;;103643;1295;547823;-75
2024/04/11 10:57:15;;;;;;;8.80;2.10;;;;;;;;;;103852;1302;545756;-72
2024/04/11 11:04:32;;;;;;;6.70;1.80;;;;;;;;;;103727;1289;546621;-69
2024/04/11 11:08:10;;;;;;;6.80;2.00;;;;;;;;;;103720;1289;545741;-71
2024/04/11 11:11:44;;;;;;;8.60;1.60;;;;;;;;;;103642;1291;545183;-71
2024/04/11 11:15:25;;;;;;;4.90;1.60;;;;;;;;;;103825;1288;544843;-72
2024/04/11 11:18:55;;;;;;;8.00;1.50;;;;;;;;;;104597;1286;544803;-77
2024/04/11 11:22:40;;;;;;;7.10;2.00;;;;;;;;;;103654;1303;544989;-71
2024/04/11 11:26:22;;;;;;;5.80;1.70;;;;;;;;;;103763;1292;544841;-71
2024/04/11 11:29:48;;;;;;;9.60;1.60;;;;;;;;;;104256;1286;546247;-72
2024/04/11 11:33:29;;;;;;;6.30;1.70;;;;;;;;;;103821;1292;545128;-71
2024/04/11 11:37:12;;;;;;;6.50;1.50;;;;;;;;;;103569;1292;545423;-69
2024/04/11 11:40:46;;;;;;;5.60;1.60;;;;;;;;;;103863;1290;544923;-71
2024/04/11 11:44:21;;;;;;;4.50;1.30;;;;;;;;;;103842;1302;545571;-70
2024/04/11 11:48:27;;;;;;;6.00;1.50;;;;;;;;;;104260;1283;547919;-73
2024/04/11 11:51:36;;;;;;;5.80;1.80;;;;;;;;;;103642;1292;544913;-70
2024/04/11 11:55:16;;;;;;;4.70;1.50;;;;;;;;;;103751;1289;544607;-69
2024/04/11 11:58:51;;;;;;;4.20;1.50;;;;;;;;;;103683;1292;544891;-71
2024/04/11 12:02:26;;;;;;;6.90;1.50;;;;;;;;;;104102;1286;545768;-70
2024/04/11 12:06:12;;;;;;;6.90;2.00;;;;;;;;;;103599;1295;545272;-70
2024/04/11 12:09:44;;;;;;;5.80;2.00;;;;;;;;;;103568;1292;545532;-69
2024/04/11 12:17:00;;;;;;;5.80;1.70;;;;;;;;;;103623;1292;544922;-70
2024/04/11 12:20:35;;;;;;;11.70;4.40;;;;;;;;;;103715;1291;544960;-72
2024/04/11 12:24:13;;;;;;;7.40;2.00;;;;;;;;;;103852;1289;545400;-69
2024/04/11 12:27:51;;;;;;;6.40;1.70;;;;;;;;;;103751;1294;545090;-74
2024/04/11 12:31:28;;;;;;;8.20;1.60;;;;;;;;;;103682;1305;547157;-73
2024/04/11 12:35:06;;;;;;;6.10;1.60;;;;;;;;;;103682;1293;546305;-71
2024/04/11 12:38:43;;;;;;;6.50;1.60;;;;;;;;;;103768;1289;545400;-70
2024/04/11 12:42:24;;;;;;;5.30;1.70;;;;;;;;;;103674;1292;545951;-71
2024/04/11 12:45:58;;;;;;;4.90;1.70;;;;;;;;;;104000;1288;544915;-70
2024/04/11 12:49:36;;;;;;;4.90;1.60;;;;;;;;;;103911;1289;545518;-70
2024/04/11 12:53:15;;;;;;;7.50;1.70;;;;;;;;;;103744;1296;545539;-75
2024/04/11 12:56:51;;;;;;;5.20;2.10;;;;;;;;;;104528;1283;546018;-71
2024/04/11 13:00:35;;;;;;;10.00;2.10;;;;;;;;;;103663;1295;545015;-76
2024/04/11 13:04:08;;;;;;;7.70;1.80;;;;;;;;;;103963;1289;545060;-68
2024/04/11 13:07:45;;;;;;;8.30;1.60;;;;;;;;;;103815;1292;545033;-70
2024/04/11 13:11:36;;;;;;;5.50;1.60;;;;;;;;;;103747;1290;545060;-71
2024/04/11 13:15:19;;;;;;;5.60;1.90;;;;;;;;;;103591;1294;545462;-74
2024/04/11 13:18:38;;;;;;;4.60;1.70;;;;;;;;;;103887;1292;544900;-72
2024/04/11 13:22:14;;;;;;;6.00;1.80;;;;;;;;;;103713;1292;546611;-75
2024/04/11 13:25:57;;;;;;;7.70;1.70;;;;;;;;;;103663;1292;547755;-70
2024/04/11 13:29:29;;;;;;;8.00;2.30;;;;;;;;;;103902;1295;545042;-71
2024/04/11 13:33:14;;;;;;;4.90;1.90;;;;;;;;;;103689;1293;545603;-71
2024/04/11 13:36:45;;;;;;;7.20;2.10;;;;;;;;;;103899;1295;545414;-72
2024/04/11 13:44:01;;;;;;;12.80;5.50;;;;;;;;;;104244;1291;545289;-70
2024/04/11 13:47:43;;;;;;;7.60;2.20;;;;;;;;;;103615;1290;547025;-72
2024/04/11 13:51:29;;;;;;;9.90;2.10;;;;;;;;;;103804;1291;545149;-71
2024/04/11 13:54:51;;;;;;;7.40;1.90;;;;;;;;;;103885;1289;544903;-70
2024/04/11 13:58:30;;;;;;;6.30;2.10;;;;;;;;;;103952;1288;544849;-71
2024/04/11 14:02:30;;;;;;;4.60;1.50;;;;;;;;;;103773;1288;544766;-72
2024/04/11 14:05:59;;;;;;;7.30;2.10;;;;;;;;;;104539;1286;544816;-74
2024/04/11 14:09:28;;;;;;;6.80;1.80;;;;;;;;;;103918;1289;544728;-73
2024/04/11 14:12:58;;;;;;;7.00;1.70;;;;;;;;;;103851;1290;544866;-71
2024/04/11 14:16:56;;;;;;;6.80;1.60;;;;;;;;;;103796;1292;544903;-71
2024/04/11 14:24:04;;;;;;;6.50;1.70;;;;;;;;;;103325;1291;545471;-69
2024/04/11 14:27:31;;;;;;;4.50;1.50;;;;;;;;;;103820;1292;545026;-73
2024/04/11 14:31:08;;;;;;;6.30;1.80;;;;;;;;;;103907;1292;545022;-71
2024/04/11 14:38:23;;;;;;;6.50;1.60;;;;;;;;;;104144;1285;545678;-76
2024/04/11 14:41:58;;;;;;;12.10;5.70;;;;;;;;;;103726;1292;545771;-72
2024/04/11 14:45:40;;;;;;;14.70;7.90;;;;;;;;;;103802;1290;544967;-75
2024/04/11 14:49:16;;;;;;;7.60;1.90;;;;;;;;;;103748;1289;545112;-72
2024/04/11 14:52:58;;;;;;;10.10;1.80;;;;;;;;;;103830;1301;544938;-73
2024/04/11 14:56:49;;;;;;;6.00;1.50;;;;;;;;;;104070;1288;545706;-75
2024/04/11 15:03:41;;;;;;;7.00;1.90;;;;;;;;;;103703;1292;545022;-72
2024/04/11 15:07:29;;;;;;;16.10;7.60;;;;;;;;;;103664;1291;544966;-71
2024/04/11 15:11:11;;;;;;;15.70;9.20;;;;;;;;;;103897;1289;545236;-75
2024/04/11 15:14:37;;;;;;;13.40;4.00;;;;;;;;;;104397;1286;544930;-71
2024/04/11 15:18:13;;;;;;;12.70;4.20;;;;;;;;;;103694;1291;545754;-73
2024/04/11 15:21:52;;;;;;;7.10;2.10;;;;;;;;;;104063;1288;545030;-75
2024/04/11 15:25:28;;;;;;;7.90;2.10;;;;;;;;;;103725;1292;546104;-72
2024/04/11 15:29:21;;;;;;;5.80;2.10;;;;;;;;;;103742;1289;545349;-73
2024/04/11 15:32:46;;;;;;;8.20;1.90;;;;;;;;;;104061;1288;545196;-73
2024/04/11 15:36:34;;;;;;;7.50;1.90;;;;;;;;;;103659;1289;545164;-73
2024/04/11 15:40:01;;;;;;;8.60;1.80;;;;;;;;;;103754;1292;545120;-72
2024/04/11 15:43:37;;;;;;;7.70;2.10;;;;;;;;;;103569;1295;545155;-72
2024/04/11 15:47:15;;;;;;;9.60;2.00;;;;;;;;;;103811;1291;545160;-71
2024/04/11 15:50:48;;;;;;;6.40;2.10;;;;;;;;;;104500;1283;545963;-72
2024/04/11 15:54:55;;;;;;;6.70;2.20;;;;;;;;;;104626;1291;544980;-71
2024/04/11 15:58:14;;;;;;;7.90;1.90;;;;;;;;;;103680;1295;546055;-74
2024/04/11 16:01:43;;;;;;;8.90;2.60;;;;;;;;;;103943;1289;544860;-73
2024/04/11 16:05:34;;;;;;;10.90;2.40;;;;;;;;;;103746;1294;545914;-72
2024/04/11 16:08:58;;;;;;;10.00;2.50;;;;;;;;;;104086;1288;545165;-73
2024/04/11 16:12:34;;;;;;;9.20;2.50;;;;;;;;;;103675;1293;544899;-76
2024/04/11 16:16:14;;;;;;;8.80;2.30;;;;;;;;;;103746;1290;544825;-71
2024/04/11 16:19:52;;;;;;;8.20;2.30;;;;;;;;;;103721;1291;544688;-73
2024/04/11 16:23:28;;;;;;;9.30;2.60;;;;;;;;;;103709;1292;545075;-77
2024/04/11 16:27:05;;;;;;;9.10;2.20;;;;;;;;;;104148;1286;545915;-73
2024/04/11 16:34:20;;;;;;;6.40;2.00;;;;;;;;;;103995;1289;545136;-71
2024/04/11 16:38:07;;;;;;;6.30;1.60;;;;;;;;;;104280;1286;544967;-72
2024/04/11 16:41:38;;;;;;;7.10;2.10;;;;;;;;;;103734;1291;545430;-76
2024/04/11 16:48:53;;;;;;;6.50;1.70;;;;;;;;;;104399;1286;545795;-72
2024/04/11 16:52:33;;;;;;;6.90;1.80;;;;;;;;;;103578;1291;545457;-76
2024/04/11 16:56:11;;;;;;;9.40;4.20;;;;;;;;;;103774;1291;545589;-75
2024/04/11 16:59:43;;;;;;;12.70;5.60;;;;;;;;;;103859;1289;544793;-73
2024/04/11 17:03:26;;;;;;;13.90;5.70;;;;;;;;;;103772;1291;544964;-76
2024/04/11 17:07:04;;;;;;;14.80;5.30;;;;;;;;;;104420;1295;544775;-73
2024/04/11 17:10:35;;;;;;;13.80;5.80;;;;;;;;;;103859;1295;545320;-71
2024/04/11 17:14:28;;;;;;;12.80;3.90;;;;;;;;;;103773;1291;544935;-72
2024/04/11 17:21:34;;;;;;;9.40;3.10;;;;;;;;;;103605;1291;545716;-72
2024/04/11 17:25:12;;;;;;;10.30;3.40;;;;;;;;;;103637;1291;544835;-71
2024/04/11 17:28:46;;;;;;;10.10;2.80;;;;;;;;;;103842;1294;545589;-72
2024/04/11 17:32:23;;;;;;;11.80;6.30;;;;;;;;;;103926;1289;545451;-71
2024/04/11 17:35:57;;;;;;;8.60;3.00;;;;;;;;;;103638;1291;548807;-72
2024/04/11 17:39:43;;;;;;;36.30;3.80;;;;;;;;;;104169;1285;544984;-70
2024/04/11 17:43:27;;;;;;;10.10;2.60;;;;;;;;;;104604;1280;545426;-71
2024/04/11 17:47:13;;;;;;;9.80;2.30;;;;;;;;;;103813;1291;544790;-72
2024/04/11 17:50:36;;;;;;;15.70;3.50;;;;;;;;;;103798;1294;544929;-71
2024/04/11 17:54:00;;;;;;;12.60;3.30;;;;;;;;;;103876;1295;544785;-74
2024/04/11 17:57:41;;;;;;;10.60;3.40;;;;;;;;;;104166;1286;545719;-75
2024/04/11 18:01:23;;;;;;;8.80;2.80;;;;;;;;;;103806;1290;546213;-73
2024/04/11 18:04:57;;;;;;;8.30;2.80;;;;;;;;;;103694;1294;545795;-71
2024/04/11 18:08:32;;;;;;;8.70;2.60;;;;;;;;;;103799;1292;544918;-71
2024/04/11 18:12:13;;;;;;;8.30;2.80;;;;;;;;;;103833;1292;544801;-72
2024/04/11 18:15:49;;;;;;;8.30;2.70;;;;;;;;;;104143;1286;545717;-71
2024/04/11 18:19:36;;;;;;;10.50;5.90;;;;;;;;;;103540;1292;544909;-72
2024/04/11 18:23:07;;;;;;;9.00;3.10;;;;;;;;;;104008;1289;545384;-72
2024/04/11 18:26:42;;;;;;;8.30;3.40;;;;;;;;;;104524;1285;545311;-71
2024/04/11 18:30:22;;;;;;;11.60;4.40;;;;;;;;;;103640;1291;545693;-71
2024/04/11 18:33:58;;;;;;;10.60;4.20;;;;;;;;;;103718;1302;544828;-70
2024/04/11 18:37:34;;;;;;;13.20;5.50;;;;;;;;;;103945;1289;545351;-72
2024/04/11 18:41:13;;;;;;;13.20;4.60;;;;;;;;;;104656;1282;544840;-72
2024/04/11 18:44:59;;;;;;;11.00;4.50;;;;;;;;;;103741;1289;545520;-71
2024/04/11 18:48:42;;;;;;;13.80;5.40;;;;;;;;;;103651;1293;546583;-71
2024/04/11 18:52:12;;;;;;;16.80;4.80;;;;;;;;;;103784;1289;545248;-72
2024/04/11 18:55:55;;;;;;;11.10;3.30;;;;;;;;;;104018;1298;545364;-72
2024/04/11 18:59:21;;;;;;;10.60;3.40;;;;;;;;;;103780;1292;544965;-71
2024/04/11 19:02:58;;;;;;;10.20;4.10;;;;;;;;;;103819;1291;544737;-71
2024/04/11 19:06:30;;;;;;;14.00;4.10;;;;;;;;;;103822;1292;545415;-71
2024/04/11 19:10:15;;;;;;;13.60;3.90;;;;;;;;;;103623;1293;545706;-73
2024/04/11 19:13:46;;;;;;;10.90;3.70;;;;;;;;;;104385;1283;544813;-73
2024/04/11 19:17:31;;;;;;;10.80;3.70;;;;;;;;;;103744;1303;545229;-73
2024/04/11 19:21:04;;;;;;;16.80;6.90;;;;;;;;;;103683;1292;545127;-72
2024/04/11 19:24:43;;;;;;;21.80;8.10;;;;;;;;;;103848;1292;545489;-70
2024/04/11 19:28:21;;;;;;;15.90;5.50;;;;;;;;;;103645;1291;545100;-71
2024/04/11 19:31:57;;;;;;;15.90;6.30;;;;;;;;;;103648;1291;545098;-71
2024/04/11 19:35:38;;;;;;;13.50;6.00;;;;;;;;;;103662;1291;545441;-71
2024/04/11 19:39:15;;;;;;;19.40;9.00;;;;;;;;;;103962;1292;544761;-72
2024/04/11 19:42:49;;;;;;;16.50;6.70;;;;;;;;;;103816;1292;545010;-71
2024/04/11 19:46:25;;;;;;;14.90;5.90;;;;;;;;;;103504;1295;545402;-72
2024/04/11 19:50:06;;;;;;;12.20;4.90;;;;;;;;;;103700;1291;544755;-71
2024/04/11 19:53:52;;;;;;;13.60;5.20;;;;;;;;;;103679;1292;545449;-70
2024/04/11 19:57:20;;;;;;;11.70;5.00;;;;;;;;;;103345;1294;545030;-71
2024/04/11 20:00:57;;;;;;;10.50;5.00;;;;;;;;;;103518;1298;544989;-71
2024/04/11 20:04:39;;;;;;;10.40;4.70;;;;;;;;;;103701;1292;544876;-71
2024/04/11 20:08:12;;;;;;;10.90;5.30;;;;;;;;;;103688;1292;545313;-72
2024/04/11 20:11:49;;;;;;;12.30;4.70;;;;;;;;;;103805;1289;544739;-71
2024/04/11 20:15:29;;;;;;;11.50;5.00;;;;;;;;;;103695;1291;545060;-73
2024/04/11 20:19:03;;;;;;;9.90;4.60;;;;;;;;;;103668;1291;546307;-70
2024/04/11 20:22:42;;;;;;;10.90;4.50;;;;;;;;;;103773;1290;545603;-70
2024/04/11 20:26:21;;;;;;;9.60;3.90;;;;;;;;;;103682;1292;545133;-70
2024/04/11 20:29:57;;;;;;;10.00;3.80;;;;;;;;;;103649;1291;547412;-72
2024/04/11 20:33:36;;;;;;;8.30;3.70;;;;;;;;;;103759;1292;546307;-73
2024/04/11 20:37:13;;;;;;;11.40;4.40;;;;;;;;;;103926;1298;545078;-70
2024/04/11 20:41:03;;;;;;;11.40;4.80;;;;;;;;;;103734;1291;545159;-71
2024/04/11 20:44:29;;;;;;;29.90;14.20;;;;;;;;;;103705;1291;546318;-72
2024/04/11 21:35:12;;;;;;;17.70;9.90;;;;;;;;;;103718;1292;545024;-72
2024/04/11 21:38:51;;;;;;;19.30;9.50;;;;;;;;;;103683;1295;544731;-72
2024/04/11 21:42:26;;;;;;;17.90;8.90;;;;;;;;;;103446;1291;545158;-73
2024/04/11 21:46:09;;;;;;;16.80;7.70;;;;;;;;;;103795;1292;545047;-71
2024/04/11 21:49:43;;;;;;;12.20;6.10;;;;;;;;;;103706;1292;545372;-70
2024/04/11 21:53:19;;;;;;;12.20;5.40;;;;;;;;;;104112;1291;544990;-71
2024/04/11 21:56:52;;;;;;;9.70;4.60;;;;;;;;;;104465;1283;544822;-71
2024/04/11 22:01:01;;;;;;;15.10;7.20;;;;;;;;;;103826;1290;546203;-71
2024/04/11 22:04:12;;;;;;;16.10;7.70;;;;;;;;;;103712;1295;545679;-71
2024/04/11 22:08:07;;;;;;;18.00;8.40;;;;;;;;;;104535;1286;545011;-72
2024/04/11 22:11:22;;;;;;;14.50;8.40;;;;;;;;;;103946;1289;544766;-72
2024/04/11 22:15:04;;;;;;;15.00;8.20;;;;;;;;;;103729;1290;545360;-71